createdAt,value
2022-12-31T00:00:24.593Z,100.00
2022-12-31T00:02:53.864Z,100.00
2022-12-31T00:05:22.530Z,100.00
2022-12-31T00:07:50.357Z,100.00
2022-12-31T00:10:18.394Z,100.00
2022-12-31T00:12:46.264Z,100.00
2022-12-31T00:15:14.279Z,100.00
2022-12-31T00:17:42.228Z,100.00
2022-12-31T00:20:12.194Z,100.00
2022-12-31T00:22:40.032Z,100.00
2022-12-31T00:25:08.608Z,100.00
2022-12-31T00:27:36.378Z,100.00
2022-12-31T00:30:05.182Z,100.00
2022-12-31T00:32:33.074Z,100.00
2022-12-31T00:35:00.931Z,100.00
2022-12-31T00:37:30.077Z,100.00
2022-12-31T00:39:57.906Z,100.00
2022-12-31T00:42:25.751Z,100.00
2022-12-31T00:44:53.855Z,100.00
2022-12-31T00:47:21.640Z,100.00
2022-12-31T00:49:49.447Z,100.00
2022-12-31T00:52:18.285Z,100.00
2022-12-31T00:54:47.535Z,100.00
2022-12-31T00:57:15.357Z,100.00
2022-12-31T00:59:43.132Z,100.00
2022-12-31T01:02:11.111Z,100.00
2022-12-31T01:04:39.030Z,100.00
2022-12-31T01:07:06.911Z,100.00
2022-12-31T01:09:34.657Z,100.00
2022-12-31T01:12:04.116Z,100.00
2022-12-31T01:14:32.835Z,100.00
2022-12-31T01:17:00.663Z,100.00
2022-12-31T01:19:29.944Z,100.00
2022-12-31T01:21:58.410Z,100.00
2022-12-31T01:24:26.479Z,100.00
2022-12-31T01:26:57.600Z,100.00
2022-12-31T01:29:29.712Z,100.00
2022-12-31T01:31:57.764Z,100.00
2022-12-31T01:34:25.590Z,100.00
2022-12-31T01:36:53.445Z,100.00
2022-12-31T01:39:21.406Z,100.00
2022-12-31T01:41:49.418Z,100.00
2022-12-31T01:44:59.920Z,100.00
2022-12-31T01:47:39.206Z,100.00
2022-12-31T01:50:13.861Z,100.00
2022-12-31T01:52:43.864Z,100.00
2022-12-31T01:55:16.941Z,100.00
2022-12-31T01:57:45.316Z,100.00
2022-12-31T02:00:13.862Z,100.00
2022-12-31T02:02:43.276Z,100.00
2022-12-31T02:05:15.483Z,100.00
2022-12-31T02:07:44.419Z,100.00
2022-12-31T02:10:12.271Z,100.00
2022-12-31T02:12:40.457Z,100.00
2022-12-31T02:15:09.239Z,100.00
2022-12-31T02:17:42.456Z,100.00
2022-12-31T02:20:43.276Z,100.00
2022-12-31T02:23:45.978Z,100.00
2022-12-31T02:26:32.365Z,100.00
2022-12-31T02:29:37.053Z,100.00
2022-12-31T02:32:09.077Z,100.00
2022-12-31T02:34:43.904Z,100.00
2022-12-31T02:37:13.412Z,100.00
2022-12-31T02:39:42.223Z,100.00
2022-12-31T02:42:11.277Z,100.00
2022-12-31T02:44:42.102Z,100.00
2022-12-31T02:47:22.161Z,100.00
2022-12-31T02:50:00.015Z,100.00
2022-12-31T02:52:35.244Z,100.00
2022-12-31T02:55:11.145Z,100.00
2022-12-31T02:57:41.715Z,100.00
2022-12-31T03:00:29.863Z,100.00
2022-12-31T03:03:00.080Z,100.00
2022-12-31T03:05:30.437Z,100.00
2022-12-31T03:07:58.313Z,100.00
2022-12-31T03:10:26.623Z,100.00
2022-12-31T03:12:54.273Z,100.00
2022-12-31T03:15:23.400Z,100.00
2022-12-31T03:17:53.724Z,100.00
2022-12-31T03:20:43.091Z,100.00
2022-12-31T03:23:14.297Z,100.00
2022-12-31T03:25:41.330Z,100.00
2022-12-31T03:28:11.041Z,100.00
2022-12-31T03:30:40.383Z,100.00
2022-12-31T03:33:09.072Z,100.00
2022-12-31T03:35:39.205Z,100.00
2022-12-31T03:38:07.456Z,100.00
2022-12-31T03:40:40.527Z,100.00
2022-12-31T03:43:08.529Z,100.00
2022-12-31T03:45:36.575Z,100.00
2022-12-31T03:48:05.767Z,100.00
2022-12-31T03:50:34.354Z,100.00
2022-12-31T03:53:04.271Z,100.00
2022-12-31T03:55:32.101Z,100.00
2022-12-31T03:58:01.545Z,100.00
2022-12-31T04:00:29.403Z,100.00
2022-12-31T04:02:57.330Z,100.00
2022-12-31T04:05:25.241Z,100.00
2022-12-31T04:07:53.118Z,100.00
2022-12-31T04:10:22.785Z,100.00
2022-12-31T04:12:50.889Z,100.00
2022-12-31T04:15:21.284Z,100.00
2022-12-31T04:17:49.557Z,100.00
2022-12-31T04:20:17.444Z,100.00
2022-12-31T04:22:45.303Z,100.00
2022-12-31T04:25:13.183Z,100.00
2022-12-31T04:27:43.996Z,100.00
2022-12-31T04:30:13.454Z,100.00
2022-12-31T04:32:41.349Z,100.00
2022-12-31T04:35:10.207Z,100.00
2022-12-31T04:37:38.067Z,100.00
2022-12-31T04:40:07.164Z,100.00
2022-12-31T04:42:35.135Z,100.00
2022-12-31T04:45:05.278Z,100.00
2022-12-31T04:47:33.112Z,100.00
2022-12-31T04:50:00.950Z,100.00
2022-12-31T04:52:28.771Z,100.00
2022-12-31T04:54:56.523Z,100.00
2022-12-31T04:57:24.766Z,100.00
2022-12-31T04:59:52.564Z,100.00
2022-12-31T05:02:21.950Z,100.00
2022-12-31T05:04:49.922Z,100.00
2022-12-31T05:07:18.850Z,100.00
2022-12-31T05:09:46.682Z,100.00
2022-12-31T05:12:14.484Z,100.00
2022-12-31T05:14:42.323Z,100.00
2022-12-31T05:17:10.133Z,100.00
2022-12-31T05:19:39.354Z,100.00
2022-12-31T05:22:23.745Z,100.00
2022-12-31T05:24:52.270Z,100.00
2022-12-31T05:27:20.211Z,100.00
2022-12-31T05:29:48.261Z,100.00
2022-12-31T05:32:16.107Z,100.00
2022-12-31T05:34:45.408Z,100.00
2022-12-31T05:37:13.330Z,100.00
2022-12-31T05:39:41.103Z,100.00
2022-12-31T05:42:08.980Z,100.00
2022-12-31T05:44:36.804Z,100.00
2022-12-31T05:47:04.799Z,100.00
2022-12-31T05:49:32.586Z,100.00
2022-12-31T05:52:01.811Z,100.00
2022-12-31T05:54:29.617Z,100.00
2022-12-31T05:56:57.550Z,100.00
2022-12-31T05:59:25.616Z,100.00
2022-12-31T06:01:53.655Z,100.00
2022-12-31T06:04:21.608Z,100.00
2022-12-31T06:06:49.487Z,100.00
2022-12-31T06:09:19.385Z,100.00
2022-12-31T06:11:47.995Z,100.00
2022-12-31T06:14:16.027Z,100.00
2022-12-31T06:16:44.357Z,100.00
2022-12-31T06:19:12.173Z,100.00
2022-12-31T06:21:40.065Z,100.00
2022-12-31T06:24:08.971Z,100.00
2022-12-31T06:26:38.621Z,100.00
2022-12-31T06:29:06.591Z,100.00
2022-12-31T06:31:34.708Z,100.00
2022-12-31T06:34:02.597Z,100.00
2022-12-31T06:36:30.556Z,100.00
2022-12-31T06:39:00.298Z,100.00
2022-12-31T06:41:28.388Z,100.00
2022-12-31T06:43:57.537Z,100.00
2022-12-31T06:46:27.180Z,100.00
2022-12-31T06:48:55.158Z,100.00
2022-12-31T06:51:25.122Z,100.00
2022-12-31T06:53:53.288Z,100.00
2022-12-31T06:56:31.281Z,100.00
2022-12-31T06:59:03.254Z,100.00
2022-12-31T07:01:41.534Z,100.00
2022-12-31T07:04:33.719Z,100.00
2022-12-31T07:07:08.450Z,100.00
2022-12-31T07:09:40.988Z,100.00
2022-12-31T07:12:16.207Z,100.00
2022-12-31T07:14:47.853Z,100.00
2022-12-31T07:17:24.921Z,100.00
2022-12-31T07:19:58.802Z,100.00
2022-12-31T07:22:27.379Z,100.00
2022-12-31T07:24:55.697Z,100.00
2022-12-31T07:27:36.343Z,100.00
2022-12-31T07:30:09.338Z,100.00
2022-12-31T07:33:04.748Z,100.00
2022-12-31T07:35:40.460Z,100.00
2022-12-31T07:38:16.219Z,100.00
2022-12-31T07:40:54.208Z,100.00
2022-12-31T07:43:28.308Z,100.00
2022-12-31T07:46:02.363Z,100.00
2022-12-31T07:48:32.092Z,100.00
2022-12-31T07:51:00.510Z,100.00
2022-12-31T07:53:29.276Z,100.00
2022-12-31T07:55:59.626Z,100.00
2022-12-31T07:58:36.310Z,100.00
2022-12-31T08:01:06.570Z,100.00
2022-12-31T08:03:47.328Z,100.00
2022-12-31T08:06:20.314Z,100.00
2022-12-31T08:08:52.143Z,100.00
2022-12-31T08:11:26.922Z,100.00
2022-12-31T08:13:57.012Z,100.00
2022-12-31T08:16:27.121Z,100.00
2022-12-31T08:18:55.526Z,100.00
2022-12-31T08:21:35.159Z,100.00
2022-12-31T08:24:12.537Z,100.00
2022-12-31T08:26:53.049Z,100.00
2022-12-31T08:29:30.264Z,100.00
2022-12-31T08:32:07.398Z,100.00
2022-12-31T08:34:40.770Z,100.00
2022-12-31T08:37:13.311Z,100.00
2022-12-31T08:39:53.207Z,100.00
2022-12-31T08:42:25.351Z,100.00
2022-12-31T08:44:58.493Z,100.00
2022-12-31T08:47:38.456Z,100.00
2022-12-31T08:50:13.523Z,100.00
2022-12-31T08:52:42.100Z,100.00
2022-12-31T08:55:14.948Z,100.00
2022-12-31T08:57:47.868Z,100.00
2022-12-31T09:00:18.011Z,100.00
2022-12-31T09:02:55.921Z,100.00
2022-12-31T09:05:25.735Z,100.00
2022-12-31T09:08:05.695Z,100.00
2022-12-31T09:10:36.213Z,100.00
2022-12-31T09:13:11.133Z,100.00
2022-12-31T09:15:42.895Z,100.00
2022-12-31T09:18:13.546Z,100.00
2022-12-31T09:20:43.747Z,100.00
2022-12-31T09:23:12.839Z,100.00
2022-12-31T09:25:45.757Z,100.00
2022-12-31T09:28:17.638Z,100.00
2022-12-31T09:30:52.102Z,100.00
2022-12-31T09:33:34.860Z,100.00
2022-12-31T09:36:05.046Z,100.00
2022-12-31T09:38:38.887Z,100.00
2022-12-31T09:41:14.632Z,100.00
2022-12-31T09:44:33.140Z,100.00
2022-12-31T09:47:48.785Z,100.00
2022-12-31T09:50:51.101Z,90.71
2022-12-31T09:53:37.360Z,100.00
2022-12-31T09:56:07.106Z,94.23
2022-12-31T09:58:43.100Z,100.00
2022-12-31T10:01:35.974Z,100.00
2022-12-31T10:04:34.880Z,97.98
2022-12-31T10:07:13.591Z,100.00
2022-12-31T10:09:51.144Z,94.24
2022-12-31T10:12:49.657Z,100.00
2022-12-31T10:15:34.458Z,100.00
2022-12-31T10:18:10.420Z,100.00
2022-12-31T10:20:46.997Z,100.00
2022-12-31T10:23:55.142Z,100.00
2022-12-31T10:26:38.266Z,100.00
2022-12-31T10:29:13.985Z,100.00
2022-12-31T10:31:47.878Z,96.17
2022-12-31T10:34:17.920Z,93.61
2022-12-31T10:36:55.018Z,92.98
2022-12-31T10:39:35.246Z,90.23
2022-12-31T10:42:31.065Z,99.08
2022-12-31T10:45:49.753Z,97.13
2022-12-31T10:48:37.380Z,95.14
2022-12-31T10:51:34.365Z,89.20
2022-12-31T10:54:26.783Z,91.68
2022-12-31T10:57:18.104Z,93.44
2022-12-31T11:00:12.225Z,88.92
2022-12-31T11:03:29.702Z,100.00
2022-12-31T11:06:37.293Z,91.23
2022-12-31T11:09:37.561Z,98.97
2022-12-31T11:12:16.885Z,75.96
2022-12-31T11:15:04.939Z,77.85
2022-12-31T11:17:41.602Z,80.86
2022-12-31T11:20:26.215Z,74.29
2022-12-31T11:22:59.571Z,86.54
2022-12-31T11:25:45.586Z,84.21
2022-12-31T11:28:30.456Z,85.78
2022-12-31T11:31:22.479Z,83.92
2022-12-31T11:34:02.819Z,90.32
2022-12-31T11:36:39.809Z,96.36
2022-12-31T11:39:31.676Z,86.13
2022-12-31T11:42:04.917Z,89.80
2022-12-31T11:44:41.751Z,81.06
2022-12-31T11:47:49.676Z,76.20
2022-12-31T11:50:40.036Z,84.97
2022-12-31T11:53:25.626Z,84.33
2022-12-31T11:56:01.470Z,75.44
2022-12-31T11:58:30.277Z,79.11
2022-12-31T12:01:02.830Z,73.02
2022-12-31T12:03:30.806Z,87.36
2022-12-31T12:05:59.450Z,89.69
2022-12-31T12:08:27.680Z,92.97
2022-12-31T12:10:59.060Z,81.06
2022-12-31T12:13:28.953Z,80.41
2022-12-31T12:16:00.399Z,74.36
2022-12-31T12:18:36.071Z,85.30
2022-12-31T12:21:08.079Z,88.78
2022-12-31T12:23:36.124Z,91.24
2022-12-31T12:26:05.725Z,76.77
2022-12-31T12:28:44.637Z,91.35
2022-12-31T12:31:21.263Z,78.68
2022-12-31T12:33:50.085Z,79.89
2022-12-31T12:36:19.878Z,71.50
2022-12-31T12:38:47.750Z,90.40
2022-12-31T12:41:21.128Z,74.45
2022-12-31T12:43:48.998Z,86.65
2022-12-31T12:46:22.875Z,87.59
2022-12-31T12:48:55.855Z,81.69
2022-12-31T12:51:41.354Z,76.02
2022-12-31T12:54:17.218Z,77.32
2022-12-31T12:56:49.783Z,86.11
2022-12-31T12:59:45.071Z,77.55
2022-12-31T13:02:39.281Z,81.55
2022-12-31T13:05:18.150Z,82.11
2022-12-31T13:07:53.945Z,83.55
2022-12-31T13:10:39.227Z,76.56
2022-12-31T13:13:25.949Z,74.65
2022-12-31T13:15:59.136Z,68.82
2022-12-31T13:18:38.596Z,76.84
2022-12-31T13:21:18.220Z,83.83
2022-12-31T13:23:49.357Z,84.16
2022-12-31T13:26:22.510Z,92.08
2022-12-31T13:28:52.148Z,77.44
2022-12-31T13:31:25.261Z,71.90
2022-12-31T13:33:57.112Z,80.44
2022-12-31T13:36:26.491Z,74.30
2022-12-31T13:38:55.888Z,75.87
2022-12-31T13:41:27.357Z,75.85
2022-12-31T13:43:59.418Z,77.01
2022-12-31T13:46:35.740Z,81.69
2022-12-31T13:49:10.506Z,73.41
2022-12-31T13:51:45.168Z,79.10
2022-12-31T13:54:32.003Z,83.83
2022-12-31T13:57:03.531Z,76.54
2022-12-31T13:59:35.632Z,71.25
2022-12-31T14:02:14.459Z,71.82
2022-12-31T14:04:47.863Z,63.97
2022-12-31T14:07:17.998Z,66.54
2022-12-31T14:09:46.504Z,61.22
2022-12-31T14:12:23.269Z,66.71
2022-12-31T14:14:56.073Z,65.54
2022-12-31T14:17:32.127Z,66.30
2022-12-31T14:20:12.569Z,72.51
2022-12-31T14:22:45.079Z,72.64
2022-12-31T14:25:21.178Z,66.17
2022-12-31T14:27:49.589Z,74.09
2022-12-31T14:30:19.567Z,73.91
2022-12-31T14:33:11.875Z,69.49
2022-12-31T14:35:57.605Z,71.73
2022-12-31T14:38:33.514Z,73.88
2022-12-31T14:41:11.212Z,76.11
2022-12-31T14:43:45.351Z,68.53
2022-12-31T14:46:19.311Z,64.16
2022-12-31T14:48:56.286Z,66.77
2022-12-31T14:51:28.806Z,76.37
2022-12-31T14:53:57.969Z,68.56
2022-12-31T14:56:32.841Z,75.57
2022-12-31T14:59:01.912Z,80.99
2022-12-31T15:01:30.334Z,72.86
2022-12-31T15:03:59.092Z,74.86
2022-12-31T15:06:51.916Z,74.92
2022-12-31T15:09:47.759Z,84.16
2022-12-31T15:12:43.236Z,77.54
2022-12-31T15:15:37.607Z,78.89
2022-12-31T15:18:18.217Z,84.25
2022-12-31T15:21:03.957Z,80.01
2022-12-31T15:23:37.073Z,74.58
2022-12-31T15:26:05.698Z,78.22
2022-12-31T15:28:35.381Z,70.40
2022-12-31T15:31:13.070Z,72.43
2022-12-31T15:33:56.806Z,72.86
2022-12-31T15:36:26.659Z,76.30
2022-12-31T15:39:07.827Z,76.57
2022-12-31T15:41:46.173Z,73.57
2022-12-31T15:44:28.411Z,82.15
2022-12-31T15:46:58.549Z,74.45
2022-12-31T15:49:26.842Z,76.19
2022-12-31T15:52:00.393Z,77.71
2022-12-31T15:54:37.468Z,76.23
2022-12-31T15:57:09.452Z,74.27
2022-12-31T15:59:38.173Z,81.18
2022-12-31T16:02:11.345Z,76.42
2022-12-31T16:04:44.287Z,80.61
2022-12-31T16:07:12.535Z,86.32
2022-12-31T16:09:42.175Z,72.44
2022-12-31T16:12:11.946Z,81.87
2022-12-31T16:14:42.125Z,77.85
2022-12-31T16:17:25.330Z,85.69
2022-12-31T16:19:53.326Z,76.60
2022-12-31T16:22:26.602Z,71.74
2022-12-31T16:27:45.233Z,84.10
2022-12-31T16:30:21.771Z,85.33
2022-12-31T16:32:51.078Z,78.88
2022-12-31T16:35:24.207Z,81.22
2022-12-31T16:38:02.672Z,86.00
2022-12-31T16:40:32.167Z,78.98
2022-12-31T16:43:00.115Z,85.66
2022-12-31T16:45:34.217Z,89.98
2022-12-31T16:48:12.991Z,76.86
2022-12-31T16:50:46.049Z,86.49
2022-12-31T16:53:17.523Z,83.57
2022-12-31T16:55:52.617Z,87.63
2022-12-31T16:58:25.022Z,84.58
2022-12-31T17:00:53.521Z,81.61
2022-12-31T17:03:23.705Z,86.25
2022-12-31T17:05:57.548Z,77.37
2022-12-31T17:08:27.339Z,80.51
2022-12-31T17:10:57.386Z,76.44
2022-12-31T17:13:30.402Z,85.44
2022-12-31T17:15:59.445Z,73.03
2022-12-31T17:18:29.838Z,79.93
2022-12-31T17:21:06.852Z,79.24
2022-12-31T17:23:37.485Z,77.70
2022-12-31T17:26:10.808Z,70.24
2022-12-31T17:28:43.284Z,73.72
2022-12-31T17:31:37.215Z,79.75
2022-12-31T17:34:21.412Z,84.07
2022-12-31T17:37:19.644Z,79.40
2022-12-31T17:39:51.445Z,80.71
2022-12-31T17:42:29.962Z,68.63
2022-12-31T17:45:02.741Z,74.88
2022-12-31T17:47:38.633Z,77.10
2022-12-31T17:50:10.475Z,74.38
2022-12-31T17:52:38.313Z,79.43
2022-12-31T17:55:06.729Z,74.49
2022-12-31T17:57:36.561Z,76.51
2022-12-31T18:00:06.000Z,75.85
2022-12-31T18:02:40.312Z,77.92
2022-12-31T18:05:14.375Z,76.24
2022-12-31T18:07:42.314Z,69.22
2022-12-31T18:10:10.587Z,73.99
2022-12-31T18:12:39.850Z,66.42
2022-12-31T18:15:08.937Z,73.71
2022-12-31T18:17:39.158Z,75.81
2022-12-31T18:20:07.975Z,69.59
2022-12-31T18:22:36.293Z,76.17
2022-12-31T18:25:06.650Z,77.16
2022-12-31T18:27:35.015Z,74.92
2022-12-31T18:30:05.988Z,80.69
2022-12-31T18:32:36.123Z,74.35
2022-12-31T18:35:04.633Z,79.84
2022-12-31T18:37:33.811Z,76.49
2022-12-31T18:40:01.808Z,74.44
2022-12-31T18:42:29.747Z,68.12
2022-12-31T18:44:57.544Z,83.18
2022-12-31T18:47:26.728Z,79.91
2022-12-31T18:49:54.895Z,73.63
2022-12-31T18:52:25.037Z,74.59
2022-12-31T18:54:52.878Z,78.23
2022-12-31T18:57:20.789Z,80.24
2022-12-31T18:59:48.654Z,89.11
2022-12-31T19:02:19.636Z,80.95
2022-12-31T19:04:49.162Z,96.14
2022-12-31T19:07:16.969Z,94.99
2022-12-31T19:09:46.372Z,92.14
2022-12-31T19:12:16.051Z,95.12
2022-12-31T19:14:45.424Z,97.55
2022-12-31T19:17:13.203Z,93.45
2022-12-31T19:19:41.020Z,84.93
2022-12-31T19:22:14.734Z,97.70
2022-12-31T19:24:42.549Z,94.07
2022-12-31T19:27:11.140Z,97.08
2022-12-31T19:29:38.963Z,97.28
2022-12-31T19:32:07.215Z,91.01
2022-12-31T19:34:35.179Z,86.81
2022-12-31T19:37:03.042Z,87.89
2022-12-31T19:39:32.221Z,84.47
2022-12-31T19:42:00.095Z,91.22
2022-12-31T19:44:29.941Z,87.33
2022-12-31T19:46:57.712Z,88.64
2022-12-31T19:49:25.607Z,80.15
2022-12-31T19:51:53.427Z,86.02
2022-12-31T19:54:21.274Z,92.34
2022-12-31T19:56:50.482Z,90.91
2022-12-31T19:59:18.280Z,83.21
2022-12-31T20:01:46.222Z,90.22
2022-12-31T20:04:14.180Z,76.81
2022-12-31T20:06:42.008Z,89.07
2022-12-31T20:09:09.839Z,81.86
2022-12-31T20:11:37.657Z,86.55
2022-12-31T20:14:07.012Z,85.37
2022-12-31T20:16:34.909Z,79.45
2022-12-31T20:19:02.786Z,77.33
2022-12-31T20:21:30.891Z,75.67
2022-12-31T20:23:58.710Z,77.42
2022-12-31T20:26:27.055Z,76.10
2022-12-31T20:28:55.000Z,73.01
2022-12-31T20:31:25.811Z,75.61
2022-12-31T20:33:54.652Z,79.76
2022-12-31T20:36:23.081Z,81.65
2022-12-31T20:38:51.260Z,70.65
2022-12-31T20:41:20.914Z,72.22
2022-12-31T20:43:49.767Z,71.03
2022-12-31T20:46:19.870Z,74.54
2022-12-31T20:48:50.070Z,75.52
2022-12-31T20:51:18.683Z,73.69
2022-12-31T20:53:47.923Z,69.54
2022-12-31T20:56:16.680Z,77.71
2022-12-31T20:58:44.787Z,67.31
2022-12-31T21:01:13.388Z,68.51
2022-12-31T21:06:32.889Z,71.98
2022-12-31T21:09:01.881Z,65.65
2022-12-31T21:11:47.358Z,68.11
2022-12-31T21:14:15.548Z,66.47
2022-12-31T21:16:43.372Z,65.70
2022-12-31T21:19:11.150Z,63.81
2022-12-31T21:21:40.396Z,60.91
2022-12-31T21:24:08.799Z,65.88
2022-12-31T21:26:36.877Z,64.70
2022-12-31T21:29:04.920Z,60.65
2022-12-31T21:31:32.733Z,67.19
2022-12-31T21:34:00.638Z,68.14
2022-12-31T21:36:28.463Z,66.87
2022-12-31T21:38:57.783Z,64.03
2022-12-31T21:41:47.367Z,58.05
2022-12-31T21:44:15.392Z,61.87
2022-12-31T21:47:07.952Z,59.58
2022-12-31T21:49:31.212Z,61.57
2022-12-31T21:52:25.021Z,58.02
2022-12-31T21:55:11.797Z,58.10
2022-12-31T21:58:07.319Z,57.33
2022-12-31T22:00:46.941Z,61.74
2022-12-31T22:03:27.807Z,56.37
2022-12-31T22:05:58.658Z,61.76
2022-12-31T22:08:27.006Z,57.84
2022-12-31T22:10:56.160Z,61.13
2022-12-31T22:13:24.223Z,60.36
2022-12-31T22:16:00.280Z,62.39
2022-12-31T22:18:33.972Z,61.39
2022-12-31T22:21:03.125Z,57.73
2022-12-31T22:23:31.291Z,55.82
2022-12-31T22:26:01.280Z,64.93
2022-12-31T22:28:39.133Z,64.08
2022-12-31T22:31:07.920Z,63.42
2022-12-31T22:33:35.913Z,59.08
2022-12-31T22:36:05.899Z,60.83
2022-12-31T22:38:34.377Z,61.11
2022-12-31T22:41:05.127Z,59.00
2022-12-31T22:43:33.091Z,56.66
2022-12-31T22:46:06.887Z,62.46
2022-12-31T22:48:34.911Z,60.19
2022-12-31T22:51:03.268Z,60.09
2022-12-31T22:53:31.183Z,61.82
2022-12-31T22:55:59.492Z,60.62
2022-12-31T22:58:28.727Z,57.19
2022-12-31T23:00:56.583Z,61.41
2022-12-31T23:03:24.494Z,63.28
2022-12-31T23:05:53.334Z,59.57
2022-12-31T23:08:23.638Z,60.66
2022-12-31T23:11:05.277Z,58.15
2022-12-31T23:13:56.516Z,58.79
2022-12-31T23:16:42.773Z,58.58
2022-12-31T23:19:27.931Z,58.22
2022-12-31T23:22:13.862Z,55.03
2022-12-31T23:24:41.902Z,55.42
2022-12-31T23:27:10.553Z,57.78
2022-12-31T23:29:46.534Z,57.22
2022-12-31T23:32:15.744Z,55.85
2022-12-31T23:34:44.223Z,56.28
2022-12-31T23:37:12.443Z,55.94
2022-12-31T23:39:40.397Z,54.22
2022-12-31T23:42:08.249Z,55.08
2022-12-31T23:44:36.054Z,53.73
2022-12-31T23:47:05.515Z,55.30
2022-12-31T23:49:33.373Z,55.70
2022-12-31T23:52:01.296Z,53.02
2022-12-31T23:54:29.540Z,55.39
2022-12-31T23:56:57.367Z,52.01
2022-12-31T23:59:25.117Z,57.43
